Time;durP1;ratioP1;P1;durP2;ratioP2;P2;SDS_P1;SDS_P2;PMS_P1;PMS_P2;Temp;Humidity;BMP_temperature;BMP_pressure;BME280_temperature;BME280_humidity;BME280_pressure;Samples;Min_cycle;Max_cycle;Signal;HPM_P1;HPM_P2
2022/08/23 00:01:22;;;;;;;10.45;6.50;;;18.50;99.90;;;;;;5068929;28;20055;-83
2022/08/23 00:03:49;;;;;;;12.50;6.78;;;18.50;99.90;;;;;;5069372;28;20041;-83
2022/08/23 00:06:16;;;;;;;12.80;8.50;;;18.50;99.90;;;;;;5044595;28;20047;-83
2022/08/23 00:08:42;;;;;;;14.00;8.00;;;18.60;99.90;;;;;;5048728;28;20044;-83
2022/08/23 00:11:35;;;;;;;12.32;7.18;;;18.60;99.90;;;;;;5038028;28;20599;-83
2022/08/23 00:14:07;;;;;;;14.02;7.78;;;18.60;99.90;;;;;;5053109;28;20044;-83
2022/08/23 00:16:34;;;;;;;11.52;6.68;;;18.60;99.90;;;;;;5068598;28;20571;-83
2022/08/23 00:19:00;;;;;;;9.73;5.78;;;18.50;99.90;;;;;;5050920;28;20037;-83
2022/08/23 00:21:28;;;;;;;14.00;9.40;;;18.40;99.90;;;;;;5048980;28;20088;-83
2022/08/23 00:23:54;;;;;;;9.70;5.35;;;18.40;99.90;;;;;;5067804;28;20044;-83
2022/08/23 00:26:19;;;;;;;9.35;3.67;;;18.40;99.90;;;;;;5069437;28;20040;-83
2022/08/23 00:28:46;;;;;;;9.38;4.30;;;18.30;99.90;;;;;;5068304;28;20413;-83
2022/08/23 00:31:12;;;;;;;13.60;6.18;;;18.30;99.90;;;;;;5068390;28;20039;-83
2022/08/23 00:33:37;;;;;;;13.80;7.55;;;18.20;99.90;;;;;;5069099;28;20040;-84
2022/08/23 00:36:03;;;;;;;13.20;8.55;;;18.20;99.90;;;;;;5051882;28;20037;-83
2022/08/23 00:38:28;;;;;;;12.98;6.90;;;18.20;99.90;;;;;;5053039;28;20406;-84
2022/08/23 00:40:55;;;;;;;10.73;6.43;;;18.20;99.90;;;;;;5067225;28;20074;-83
2022/08/23 00:49:52;;;;;;;8.32;4.88;;;18.00;99.90;;;;;;5010965;28;20053;-83
2022/08/23 00:52:30;;;;;;;11.18;6.68;;;17.90;99.90;;;;;;5029782;28;20127;-83
2022/08/23 00:54:56;;;;;;;10.98;6.75;;;17.90;99.90;;;;;;5051229;28;20059;-83
2022/08/23 00:57:22;;;;;;;9.25;6.40;;;17.90;99.90;;;;;;5033633;28;20068;-84
2022/08/23 00:59:48;;;;;;;11.60;6.32;;;17.90;99.90;;;;;;5051627;28;20068;-83
2022/08/23 01:02:14;;;;;;;11.25;6.93;;;17.90;99.90;;;;;;5043496;28;20044;-83
2022/08/23 01:04:53;;;;;;;10.88;6.65;;;17.90;99.90;;;;;;5055810;28;20044;-83
2022/08/23 01:07:38;;;;;;;9.68;5.63;;;17.90;99.90;;;;;;5056513;28;20040;-83
2022/08/23 01:10:12;;;;;;;10.77;6.20;;;17.90;99.90;;;;;;5055170;28;20089;-83
2022/08/23 01:12:45;;;;;;;8.30;4.53;;;17.80;99.90;;;;;;5072836;28;20123;-83
2022/08/23 01:15:44;;;;;;;9.25;5.40;;;17.80;99.90;;;;;;5072417;28;20059;-83
2022/08/23 01:18:14;;;;;;;9.25;5.95;;;17.70;99.90;;;;;;5035021;28;20056;-83
2022/08/23 01:20:56;;;;;;;9.48;5.88;;;17.70;99.90;;;;;;5034460;28;20116;-83
2022/08/23 01:23:30;;;;;;;;;;;17.70;99.90;;;;;;5034379;28;20049;-83
2022/08/23 01:25:57;;;;;;;9.82;5.78;;;17.50;99.90;;;;;;5035413;28;19920;-84
2022/08/23 01:28:23;;;;;;;9.05;6.00;;;17.50;99.90;;;;;;5022646;28;20581;-84
2022/08/23 01:30:49;;;;;;;10.27;6.35;;;17.50;99.90;;;;;;4997755;28;20160;-83
2022/08/23 01:33:15;;;;;;;9.20;5.55;;;17.50;99.90;;;;;;5005695;28;20037;-83
2022/08/23 01:35:45;;;;;;;9.98;5.40;;;17.50;99.90;;;;;;5033896;28;20048;-83
2022/08/23 01:38:12;;;;;;;7.88;4.00;;;17.50;99.90;;;;;;5034370;28;20044;-83
2022/08/23 01:40:39;;;;;;;6.85;2.80;;;17.40;99.90;;;;;;5033873;28;20044;-83
2022/08/23 01:43:06;;;;;;;7.25;3.17;;;17.30;99.90;;;;;;5034266;28;20047;-83
2022/08/23 01:45:32;;;;;;;5.57;2.00;;;17.20;99.90;;;;;;5034052;28;20076;-83
2022/08/23 01:47:58;;;;;;;4.25;2.10;;;17.10;99.90;;;;;;5033659;28;20055;-83
2022/08/23 01:50:24;;;;;;;3.33;1.60;;;17.00;99.90;;;;;;5033373;28;20506;-83
2022/08/23 01:52:50;;;;;;;3.53;1.70;;;16.90;99.90;;;;;;5033688;28;20545;-83
2022/08/23 01:55:16;;;;;;;3.78;1.90;;;16.90;99.90;;;;;;5048504;28;20053;-83
2022/08/23 01:57:44;;;;;;;3.97;1.90;;;16.80;99.90;;;;;;5043656;28;20398;-83
2022/08/23 02:00:10;;;;;;;4.60;2.20;;;16.80;99.90;;;;;;5051868;28;20048;-83
2022/08/23 02:02:36;;;;;;;5.50;2.38;;;16.80;99.90;;;;;;5058759;28;20409;-83
2022/08/23 02:05:04;;;;;;;5.63;2.30;;;16.70;99.90;;;;;;5054653;28;20510;-83
2022/08/23 02:07:30;;;;;;;4.50;2.15;;;16.70;99.90;;;;;;5054713;28;20036;-83
2022/08/23 02:09:56;;;;;;;5.68;3.25;;;16.70;99.90;;;;;;5070628;28;20494;-83
2022/08/23 02:12:22;;;;;;;3.45;1.90;;;16.70;99.90;;;;;;5055135;28;20097;-83
2022/08/23 02:14:48;;;;;;;3.78;1.60;;;16.70;99.90;;;;;;5071361;28;20048;-83
2022/08/23 02:17:15;;;;;;;2.63;1.40;;;16.70;99.90;;;;;;5054484;28;20047;-83
2022/08/23 02:19:42;;;;;;;3.55;1.67;;;16.60;99.90;;;;;;5070571;28;20044;-83
2022/08/23 02:22:09;;;;;;;3.20;1.52;;;16.60;99.90;;;;;;5064214;28;20102;-83
2022/08/23 02:24:39;;;;;;;5.20;2.00;;;16.60;99.90;;;;;;5054784;28;20398;-83
2022/08/23 02:27:05;;;;;;;3.67;1.85;;;16.60;99.90;;;;;;5054320;28;20036;-83
2022/08/23 02:29:34;;;;;;;3.92;1.55;;;16.50;99.90;;;;;;5071039;28;20409;-83
2022/08/23 02:32:00;;;;;;;4.30;1.90;;;16.50;99.90;;;;;;5069709;28;20110;-83
2022/08/23 02:34:26;;;;;;;5.13;2.30;;;16.50;99.90;;;;;;5071583;28;20048;-83
2022/08/23 02:36:52;;;;;;;4.93;2.05;;;16.50;99.90;;;;;;5070316;28;20048;-83
2022/08/23 02:39:17;;;;;;;4.93;2.28;;;16.40;99.90;;;;;;5054935;28;20047;-83
2022/08/23 02:41:43;;;;;;;5.95;2.40;;;16.40;99.90;;;;;;5054479;28;20048;-83
2022/08/23 02:44:09;;;;;;;5.55;2.90;;;16.40;99.90;;;;;;5070342;28;20043;-83
2022/08/23 02:46:36;;;;;;;9.05;4.05;;;16.40;99.90;;;;;;5054440;28;20097;-83
2022/08/23 02:49:02;;;;;;;7.43;3.45;;;16.40;99.90;;;;;;5070458;28;20665;-83
2022/08/23 02:51:28;;;;;;;5.63;2.83;;;16.40;99.90;;;;;;5070412;28;20036;-84
2022/08/23 02:53:53;;;;;;;6.00;2.78;;;16.40;99.90;;;;;;5054657;28;20044;-83
2022/08/23 02:56:19;;;;;;;6.07;3.28;;;16.40;99.90;;;;;;5061495;28;20401;-83
2022/08/23 02:58:45;;;;;;;6.68;2.88;;;16.40;99.90;;;;;;5070842;28;20051;-83
2022/08/23 03:01:20;;;;;;;7.57;3.90;;;16.30;99.90;;;;;;5044064;28;20044;-83
2022/08/23 03:03:45;;;;;;;6.75;3.80;;;16.30;99.90;;;;;;5070708;28;20049;-83
2022/08/23 03:06:15;;;;;;;7.50;4.40;;;16.30;99.90;;;;;;5054099;28;20036;-83
2022/08/23 03:08:41;;;;;;;6.35;2.70;;;16.40;99.90;;;;;;5052875;28;20638;-83
2022/08/23 03:11:17;;;;;;;7.10;3.88;;;16.30;99.90;;;;;;5053478;28;20044;-83
2022/08/23 03:13:44;;;;;;;7.88;4.68;;;16.40;99.90;;;;;;5053200;28;20119;-83
2022/08/23 03:16:11;;;;;;;7.28;4.18;;;16.40;99.90;;;;;;5053775;28;20043;-84
2022/08/23 03:18:38;;;;;;;7.82;4.72;;;16.40;99.90;;;;;;5070116;28;20070;-83
2022/08/23 03:21:05;;;;;;;7.50;5.47;;;16.40;99.90;;;;;;5069259;28;20044;-83
2022/08/23 03:23:31;;;;;;;7.93;4.32;;;16.40;99.90;;;;;;5053224;28;20063;-83
2022/08/23 03:25:58;;;;;;;8.05;4.15;;;16.40;99.90;;;;;;5070069;28;20059;-83
2022/08/23 03:28:24;;;;;;;6.85;4.47;;;16.40;99.90;;;;;;5069931;28;20059;-83
2022/08/23 03:30:50;;;;;;;8.00;5.68;;;16.40;99.90;;;;;;5058115;28;20033;-83
2022/08/23 03:33:16;;;;;;;10.52;3.40;;;16.30;99.90;;;;;;5033604;28;20090;-83
2022/08/23 03:35:41;;;;;;;6.20;3.20;;;16.30;99.90;;;;;;5052896;28;20394;-83
2022/08/23 03:38:07;;;;;;;7.55;3.80;;;16.30;99.90;;;;;;5070000;28;20485;-83
2022/08/23 03:40:33;;;;;;;6.60;3.00;;;16.20;99.90;;;;;;5052977;28;20044;-83
2022/08/23 03:43:00;;;;;;;3.80;1.73;;;16.20;99.90;;;;;;5052437;28;20064;-83
2022/08/23 03:45:26;;;;;;;5.43;2.45;;;16.10;99.90;;;;;;5069867;28;20044;-83
2022/08/23 03:47:52;;;;;;;5.70;2.28;;;16.10;99.90;;;;;;5052557;28;20076;-83
2022/08/23 03:50:19;;;;;;;5.75;2.60;;;16.10;99.90;;;;;;5069889;28;20071;-83
2022/08/23 03:52:45;;;;;;;4.90;1.98;;;16.10;99.90;;;;;;5068615;28;20497;-83
2022/08/23 03:55:11;;;;;;;5.50;1.70;;;16.00;99.90;;;;;;5052674;28;20071;-83
2022/08/23 03:57:37;;;;;;;4.10;1.67;;;16.00;99.90;;;;;;5052042;28;20068;-83
2022/08/23 04:00:06;;;;;;;3.35;1.25;;;15.90;99.90;;;;;;5052425;28;20064;-83
2022/08/23 04:02:31;;;;;;;3.22;1.58;;;15.80;99.90;;;;;;5053049;28;20033;-83
2022/08/23 04:04:58;;;;;;;4.95;1.92;;;15.80;99.90;;;;;;5069498;28;20032;-83
2022/08/23 04:07:24;;;;;;;4.22;2.00;;;15.80;99.90;;;;;;5051968;28;20075;-83
2022/08/23 04:09:50;;;;;;;5.65;2.40;;;15.80;99.90;;;;;;5049127;28;20047;-83
2022/08/23 04:12:15;;;;;;;6.75;3.60;;;15.80;99.90;;;;;;5057281;28;20036;-83
2022/08/23 04:14:41;;;;;;;8.93;4.00;;;15.80;99.90;;;;;;5052715;28;20029;-83
2022/08/23 04:17:07;;;;;;;8.05;3.90;;;15.70;99.90;;;;;;5069374;28;20041;-83
2022/08/23 04:19:32;;;;;;;9.95;5.00;;;15.80;99.90;;;;;;5068695;28;20051;-83
2022/08/23 04:21:58;;;;;;;8.43;4.93;;;15.70;99.90;;;;;;5051870;28;20041;-83
2022/08/23 04:24:24;;;;;;;6.18;3.33;;;15.70;99.90;;;;;;5051892;28;20417;-83
2022/08/23 04:26:49;;;;;;;7.30;2.53;;;15.70;99.90;;;;;;5052806;28;20127;-83
2022/08/23 04:29:16;;;;;;;7.07;1.90;;;15.70;99.90;;;;;;5051455;28;20067;-83
2022/08/23 04:31:43;;;;;;;3.47;1.45;;;15.70;99.90;;;;;;5068426;28;20040;-83
2022/08/23 04:34:08;;;;;;;5.93;1.65;;;15.70;99.90;;;;;;5069367;28;20048;-83
2022/08/23 04:36:37;;;;;;;2.95;1.20;;;15.60;99.90;;;;;;5068274;28;20040;-83
2022/08/23 04:39:04;;;;;;;4.32;1.80;;;15.50;99.90;;;;;;5052467;28;20037;-83
2022/08/23 04:44:14;;;;;;;4.82;2.30;;;15.50;99.90;;;;;;5067943;28;20048;-83
2022/08/23 04:46:42;;;;;;;2.55;1.08;;;15.50;99.90;;;;;;5069464;28;20036;-83
2022/08/23 04:49:08;;;;;;;5.93;2.92;;;15.40;99.90;;;;;;5068540;28;20032;-83
2022/08/23 04:51:34;;;;;;;7.63;3.65;;;15.40;99.90;;;;;;5067624;28;20044;-83
2022/08/23 04:53:59;;;;;;;8.60;4.22;;;15.40;99.90;;;;;;5069346;28;20040;-83
2022/08/23 04:56:25;;;;;;;7.93;5.30;;;15.40;99.90;;;;;;5048080;28;20132;-83
2022/08/23 04:58:50;;;;;;;7.13;3.17;;;15.40;99.90;;;;;;5052208;28;20041;-83
2022/08/23 05:01:16;;;;;;;9.25;6.13;;;15.30;99.90;;;;;;5068491;28;20078;-83
2022/08/23 05:03:42;;;;;;;10.57;6.10;;;15.30;99.90;;;;;;5051872;28;20032;-83
2022/08/23 05:06:07;;;;;;;8.52;3.08;;;15.40;99.90;;;;;;5068437;28;20405;-83
2022/08/23 05:08:34;;;;;;;6.80;3.40;;;15.30;99.90;;;;;;5051948;28;20533;-83
2022/08/23 05:11:01;;;;;;;14.77;11.90;;;15.30;99.90;;;;;;5068279;28;20040;-83
2022/08/23 05:13:28;;;;;;;13.20;8.15;;;15.40;99.90;;;;;;5067783;28;20048;-83
2022/08/23 05:15:53;;;;;;;10.32;7.55;;;15.50;99.90;;;;;;5069089;28;20123;-83
2022/08/23 05:18:19;;;;;;;12.73;9.77;;;15.60;99.90;;;;;;5068421;28;20124;-83
2022/08/23 05:20:44;;;;;;;13.05;10.20;;;15.70;99.90;;;;;;5048678;28;20076;-82
2022/08/23 05:23:10;;;;;;;12.30;9.23;;;15.70;99.90;;;;;;5062532;28;20037;-83
2022/08/23 05:25:51;;;;;;;12.95;6.97;;;15.80;99.90;;;;;;5060089;28;20517;-83
2022/08/23 05:28:20;;;;;;;12.50;9.43;;;15.80;99.90;;;;;;5068727;28;20448;-83
2022/08/23 05:31:01;;;;;;;14.40;8.00;;;15.80;99.90;;;;;;5057116;28;20048;-83
2022/08/23 05:33:27;;;;;;;12.98;11.57;;;15.70;99.90;;;;;;5048859;28;20059;-83
2022/08/23 05:35:53;;;;;;;14.77;10.98;;;15.80;99.90;;;;;;5037530;28;20169;-83
2022/08/23 05:38:19;;;;;;;14.60;10.95;;;15.90;99.90;;;;;;5051511;28;20123;-83
2022/08/23 05:40:51;;;;;;;11.98;7.95;;;15.90;99.90;;;;;;5052090;28;20127;-83
2022/08/23 05:43:17;;;;;;;15.30;11.77;;;15.90;99.90;;;;;;5067385;28;20113;-83
2022/08/23 05:45:44;;;;;;;15.10;13.50;;;15.90;99.90;;;;;;5053958;28;20044;-83
2022/08/23 05:48:10;;;;;;;15.25;13.63;;;16.00;99.90;;;;;;5071652;28;20101;-83
2022/08/23 05:50:37;;;;;;;15.45;13.00;;;16.10;99.90;;;;;;5052005;28;20120;-83
2022/08/23 05:53:03;;;;;;;14.90;12.73;;;16.20;99.90;;;;;;5057015;28;20116;-83
2022/08/23 05:55:29;;;;;;;16.75;13.15;;;16.30;99.90;;;;;;5055072;28;20033;-83
2022/08/23 05:57:54;;;;;;;16.98;13.70;;;16.30;99.90;;;;;;5054429;28;20086;-83
2022/08/23 06:00:20;;;;;;;17.45;14.10;;;16.40;99.90;;;;;;5060007;28;20441;-83
2022/08/23 06:02:48;;;;;;;14.52;13.00;;;16.50;99.90;;;;;;5035068;28;20040;-83
2022/08/23 06:05:14;;;;;;;14.60;10.43;;;16.60;99.90;;;;;;5051861;28;20047;-83
2022/08/23 06:07:40;;;;;;;17.35;15.68;;;16.70;99.90;;;;;;5071690;28;20418;-83
2022/08/23 06:10:07;;;;;;;17.85;16.15;;;16.70;99.90;;;;;;5071328;28;20497;-84
2022/08/23 06:12:33;;;;;;;16.80;15.20;;;16.80;99.90;;;;;;5070276;28;20036;-83
2022/08/23 06:14:59;;;;;;;18.23;16.38;;;16.90;99.90;;;;;;5071671;28;20166;-83
2022/08/23 06:17:25;;;;;;;17.92;16.02;;;17.00;99.90;;;;;;5071779;28;20044;-83
2022/08/23 06:19:51;;;;;;;17.95;16.08;;;17.10;99.90;;;;;;5053970;28;20052;-83
2022/08/23 06:22:17;;;;;;;20.13;17.90;;;17.10;99.90;;;;;;5054639;28;20044;-84
2022/08/23 06:24:43;;;;;;;20.13;18.23;;;17.20;99.90;;;;;;5054236;28;20650;-84
2022/08/23 06:27:10;;;;;;;18.60;16.80;;;17.30;99.90;;;;;;5071347;28;20040;-84
2022/08/23 06:29:37;;;;;;;18.58;16.60;;;17.40;99.90;;;;;;5067868;28;20579;-84
2022/08/23 06:32:03;;;;;;;20.42;18.33;;;17.50;99.90;;;;;;5059420;28;20550;-84
2022/08/23 06:34:35;;;;;;;18.33;16.52;;;17.60;99.90;;;;;;5060208;28;20441;-84
2022/08/23 06:37:05;;;;;;;18.63;16.65;;;17.70;99.90;;;;;;5056307;28;20041;-84
2022/08/23 06:39:31;;;;;;;17.52;15.65;;;17.80;99.90;;;;;;5034633;28;20051;-84
2022/08/23 06:42:04;;;;;;;17.98;16.13;;;17.90;99.90;;;;;;5054943;28;20033;-84
2022/08/23 06:44:31;;;;;;;18.98;16.45;;;18.10;99.90;;;;;;5070790;28;20047;-84
2022/08/23 06:46:57;;;;;;;16.95;15.20;;;18.30;99.90;;;;;;5070633;28;20070;-84
2022/08/23 06:49:23;;;;;;;16.67;14.73;;;18.40;99.90;;;;;;5042740;28;20494;-84
2022/08/23 06:51:51;;;;;;;15.32;13.73;;;18.50;99.90;;;;;;5050656;28;20048;-84
2022/08/23 06:54:20;;;;;;;15.50;12.75;;;18.60;99.90;;;;;;5056475;28;20077;-84
2022/08/23 06:56:48;;;;;;;13.60;12.20;;;18.80;99.90;;;;;;5034868;28;20757;-84
2022/08/23 06:59:14;;;;;;;15.05;10.85;;;18.90;99.90;;;;;;5034744;28;20045;-84
2022/08/23 07:01:55;;;;;;;16.35;10.63;;;19.00;99.90;;;;;;5042661;28;20040;-84
2022/08/23 07:04:24;;;;;;;15.02;10.85;;;19.20;99.90;;;;;;5070647;28;20040;-84
2022/08/23 07:06:50;;;;;;;14.85;10.93;;;19.30;99.90;;;;;;5071462;28;20047;-84
2022/08/23 07:09:17;;;;;;;13.00;9.10;;;19.40;99.90;;;;;;5053429;28;20045;-85
2022/08/23 07:11:43;;;;;;;12.93;8.63;;;19.50;99.90;;;;;;5069793;28;20040;-84
2022/08/23 07:14:12;;;;;;;11.48;8.55;;;19.70;99.90;;;;;;5059218;28;20182;-84
2022/08/23 07:16:44;;;;;;;11.02;8.13;;;19.80;99.90;;;;;;5068725;28;20036;-84
2022/08/23 07:19:11;;;;;;;15.73;8.00;;;19.80;99.90;;;;;;5051979;28;20038;-84
2022/08/23 07:21:37;;;;;;;13.57;7.57;;;20.00;99.90;;;;;;5049117;28;20120;-85
2022/08/23 07:24:03;;;;;;;15.50;7.95;;;20.00;99.90;;;;;;5050576;28;20036;-85
2022/08/23 07:26:30;;;;;;;12.23;7.13;;;20.20;99.90;;;;;;5053903;28;20045;-85
2022/08/23 07:28:56;;;;;;;10.43;7.68;;;20.30;99.90;;;;;;5037748;28;20409;-85
2022/08/23 07:31:29;;;;;;;11.82;6.80;;;20.40;99.90;;;;;;5033153;28;20043;-85
2022/08/23 07:33:57;;;;;;;11.55;7.70;;;20.50;99.90;;;;;;5041083;28;20041;-85
2022/08/23 07:36:25;;;;;;;11.50;7.38;;;20.60;99.90;;;;;;5050408;28;20136;-85
2022/08/23 07:38:51;;;;;;;13.70;7.20;;;20.70;99.90;;;;;;5058186;28;20549;-85
2022/08/23 07:41:18;;;;;;;11.98;7.18;;;20.80;99.90;;;;;;5050251;28;20398;-85
2022/08/23 07:43:44;;;;;;;10.65;7.25;;;20.90;99.90;;;;;;5033380;28;20048;-85
2022/08/23 07:46:10;;;;;;;10.50;6.50;;;21.00;99.90;;;;;;5041450;28;20029;-85
2022/08/23 07:48:36;;;;;;;10.80;7.03;;;21.10;99.90;;;;;;5032678;28;20051;-85
2022/08/23 07:51:07;;;;;;;12.32;7.95;;;21.20;99.90;;;;;;5049167;28;20040;-85
2022/08/23 07:53:33;;;;;;;11.18;7.00;;;21.30;99.90;;;;;;5053058;28;20033;-85
2022/08/23 07:56:04;;;;;;;11.73;7.07;;;21.40;99.90;;;;;;5071116;28;20040;-85
2022/08/23 07:58:29;;;;;;;9.60;6.55;;;21.50;99.90;;;;;;5044722;28;20033;-85
2022/08/23 08:00:55;;;;;;;10.73;6.55;;;21.60;99.90;;;;;;5032814;28;20399;-85
2022/08/23 08:03:21;;;;;;;12.98;6.78;;;21.60;99.90;;;;;;5036578;28;20040;-85
2022/08/23 08:05:47;;;;;;;14.45;6.95;;;21.70;99.90;;;;;;5069395;28;20059;-85
2022/08/23 08:08:12;;;;;;;10.20;6.20;;;21.80;99.90;;;;;;5069514;28;20502;-85
2022/08/23 08:10:40;;;;;;;10.73;6.45;;;21.80;99.90;;;;;;5051810;28;20051;-85
2022/08/23 08:13:07;;;;;;;11.18;6.93;;;21.90;99.90;;;;;;5049937;28;20143;-85
2022/08/23 08:15:34;;;;;;;10.75;6.80;;;22.00;99.90;;;;;;5033279;28;20045;-85
2022/08/23 08:17:59;;;;;;;9.00;6.10;;;22.00;99.90;;;;;;5059055;28;20117;-85
2022/08/23 08:20:27;;;;;;;10.48;6.40;;;22.10;99.90;;;;;;5052697;28;20044;-85
2022/08/23 08:22:53;;;;;;;11.55;6.50;;;22.20;99.90;;;;;;5052522;28;20072;-85
2022/08/23 08:25:19;;;;;;;10.93;6.65;;;22.30;99.90;;;;;;5060205;28;20122;-85
2022/08/23 08:27:44;;;;;;;11.95;6.47;;;22.30;99.90;;;;;;5033168;28;20506;-85
2022/08/23 08:30:11;;;;;;;12.07;6.93;;;22.40;99.90;;;;;;5040641;28;20086;-85
2022/08/23 08:32:37;;;;;;;11.95;6.90;;;22.50;99.90;;;;;;5031590;28;20152;-85
2022/08/23 08:35:03;;;;;;;9.70;6.35;;;22.50;99.90;;;;;;5036226;28;20120;-85
2022/08/23 08:37:30;;;;;;;12.15;6.55;;;22.50;99.90;;;;;;5053682;28;20545;-85
2022/08/23 08:39:57;;;;;;;11.27;6.88;;;22.60;99.90;;;;;;5048923;28;20049;-85
2022/08/23 08:42:52;;;;;;;10.73;6.00;;;22.70;99.90;;;;;;5040717;28;20040;-85
2022/08/23 08:45:24;;;;;;;10.05;5.63;;;22.80;99.90;;;;;;5068896;28;20044;-86
2022/08/23 08:48:04;;;;;;;10.02;5.85;;;22.90;99.90;;;;;;5043042;28;20478;-85
2022/08/23 08:50:35;;;;;;;11.45;6.32;;;22.90;99.90;;;;;;5044108;28;20033;-86
2022/08/23 08:53:40;;;;;;;9.52;5.82;;;23.00;99.90;;;;;;5056838;28;20033;-86
2022/08/23 08:56:29;;;;;;;10.80;5.95;;;23.20;99.90;;;;;;5065590;28;20090;-86
2022/08/23 08:59:00;;;;;;;11.05;6.25;;;23.30;99.90;;;;;;5037657;28;20382;-86
2022/08/23 09:01:27;;;;;;;12.18;5.45;;;23.30;99.90;;;;;;5051660;28;20043;-86
2022/08/23 09:03:54;;;;;;;11.25;5.72;;;23.40;99.90;;;;;;5051820;28;20726;-85
2022/08/23 09:06:26;;;;;;;9.98;5.78;;;23.40;99.90;;;;;;5067851;28;20082;-86
2022/08/23 09:09:14;;;;;;;8.40;5.47;;;23.50;99.90;;;;;;5068642;28;20052;-86
2022/08/23 09:12:11;;;;;;;11.75;5.22;;;23.50;99.90;;;;;;5064331;28;20029;-86
2022/08/23 09:14:37;;;;;;;9.88;5.10;;;23.50;99.90;;;;;;5049090;28;20044;-86
2022/08/23 09:17:04;;;;;;;10.82;5.47;;;23.50;99.90;;;;;;5034277;28;20048;-86
2022/08/23 09:19:35;;;;;;;10.93;5.93;;;23.60;99.90;;;;;;5052287;28;20072;-86
2022/08/23 09:22:15;;;;;;;12.20;5.50;;;23.70;99.90;;;;;;5042866;28;20110;-86
2022/08/23 09:24:41;;;;;;;12.65;5.07;;;23.90;99.90;;;;;;5067934;28;20046;-86
2022/08/23 09:27:09;;;;;;;9.25;5.20;;;23.90;99.90;;;;;;5055942;28;20134;-86
2022/08/23 09:29:37;;;;;;;10.20;4.85;;;24.10;99.90;;;;;;5055313;28;20036;-86
2022/08/23 09:32:23;;;;;;;10.73;5.18;;;24.20;99.90;;;;;;5055225;28;20036;-86
2022/08/23 09:34:49;;;;;;;10.48;5.10;;;24.20;99.90;;;;;;5046192;28;20041;-86
2022/08/23 09:37:23;;;;;;;11.05;5.90;;;24.40;99.90;;;;;;5055934;28;20123;-86
2022/08/23 09:39:52;;;;;;;10.98;5.50;;;24.40;99.90;;;;;;5073149;28;20045;-86
2022/08/23 09:42:31;;;;;;;9.82;4.85;;;24.50;99.90;;;;;;5071391;28;20043;-85
2022/08/23 09:44:58;;;;;;;10.40;5.60;;;24.60;99.90;;;;;;5055235;28;20491;-85
2022/08/23 09:47:36;;;;;;;10.98;5.97;;;24.70;99.90;;;;;;5054674;28;20040;-85
2022/08/23 09:50:21;;;;;;;11.07;5.55;;;24.70;99.90;;;;;;5058601;28;20052;-85
2022/08/23 09:52:49;;;;;;;10.35;5.30;;;24.80;99.90;;;;;;5036383;28;20041;-85
2022/08/23 09:55:41;;;;;;;10.30;5.57;;;24.90;99.30;;;;;;5071585;28;20131;-85
2022/08/23 09:58:31;;;;;;;11.75;6.38;;;25.00;98.30;;;;;;5072587;28;20040;-85
2022/08/23 10:01:18;;;;;;;9.82;5.53;;;25.10;97.80;;;;;;5067641;28;20055;-86
2022/08/23 10:03:45;;;;;;;9.70;5.03;;;25.20;97.10;;;;;;5054969;28;20029;-86
2022/08/23 10:06:15;;;;;;;10.80;4.72;;;25.20;96.70;;;;;;5071032;28;20121;-86
2022/08/23 10:08:54;;;;;;;10.40;4.53;;;25.30;97.40;;;;;;5054261;28;20036;-86
2022/08/23 10:11:24;;;;;;;10.88;3.85;;;25.50;96.20;;;;;;5054064;28;20742;-86
2022/08/23 10:13:51;;;;;;;8.82;3.50;;;25.50;94.80;;;;;;5051856;28;20038;-86
2022/08/23 10:16:43;;;;;;;10.95;4.95;;;25.60;94.80;;;;;;5035310;28;20041;-85
2022/08/23 10:19:33;;;;;;;9.20;4.07;;;25.70;95.50;;;;;;5063719;28;20048;-85
2022/08/23 10:22:04;;;;;;;9.10;3.80;;;25.80;96.20;;;;;;5034664;28;20777;-86
2022/08/23 10:24:47;;;;;;;9.97;4.40;;;25.90;95.90;;;;;;5042474;28;20037;-86
2022/08/23 10:30:44;;;;;;;9.18;3.17;;;26.10;91.80;;;;;;5069035;28;20055;-86
2022/08/23 10:33:28;;;;;;;13.98;4.07;;;26.10;84.20;;;;;;5069857;28;20043;-86
2022/08/23 10:36:09;;;;;;;10.07;3.28;;;26.20;82.30;;;;;;5054318;28;20037;-86
2022/08/23 10:38:38;;;;;;;8.45;3.58;;;26.30;86.70;;;;;;5070867;28;20039;-86
2022/08/23 10:41:14;;;;;;;9.25;3.70;;;26.40;90.40;;;;;;5053836;28;20036;-86
2022/08/23 10:44:06;;;;;;;11.13;3.63;;;26.50;90.50;;;;;;5054235;28;20398;-86
2022/08/23 10:46:40;;;;;;;10.93;4.10;;;26.60;86.90;;;;;;5069602;28;20036;-86
2022/08/23 10:49:10;;;;;;;11.02;3.55;;;26.60;83.00;;;;;;5071136;28;20040;-86
2022/08/23 10:51:40;;;;;;;8.55;3.22;;;26.70;84.40;;;;;;5070196;28;20350;-86
2022/08/23 10:54:11;;;;;;;8.90;3.25;;;26.80;86.20;;;;;;5056751;28;20533;-86
2022/08/23 10:56:37;;;;;;;9.00;3.55;;;26.90;78.00;;;;;;5034846;28;20147;-86
2022/08/23 10:59:03;;;;;;;8.75;3.72;;;26.90;79.30;;;;;;5057183;28;20037;-86
2022/08/23 11:01:50;;;;;;;7.60;3.17;;;27.00;74.40;;;;;;5035537;28;20041;-86
2022/08/23 11:04:45;;;;;;;8.30;3.15;;;27.00;72.90;;;;;;5050970;28;20037;-86
2022/08/23 11:07:30;;;;;;;9.68;3.33;;;27.10;76.40;;;;;;5055899;28;20094;-86
2022/08/23 11:10:12;;;;;;;10.27;3.45;;;27.20;75.90;;;;;;5034064;28;20060;-86
2022/08/23 11:12:57;;;;;;;10.75;3.40;;;27.30;71.40;;;;;;5065474;28;20032;-86
2022/08/23 11:15:38;;;;;;;9.13;3.60;;;27.40;71.80;;;;;;5070379;28;20147;-85
2022/08/23 11:18:09;;;;;;;11.75;3.20;;;27.50;69.80;;;;;;5053295;28;20040;-86
2022/08/23 11:20:52;;;;;;;11.13;3.60;;;27.60;68.10;;;;;;5070548;28;20050;-86
2022/08/23 11:23:42;;;;;;;9.00;2.92;;;27.70;64.90;;;;;;5052586;28;20131;-86
2022/08/23 11:26:35;;;;;;;8.93;2.60;;;27.90;65.20;;;;;;5046017;28;20043;-86
2022/08/23 11:29:06;;;;;;;8.25;3.13;;;27.90;63.30;;;;;;5042285;28;20098;-86
2022/08/23 11:32:20;;;;;;;7.53;2.78;;;28.00;63.70;;;;;;5060959;28;20041;-86
2022/08/23 11:34:51;;;;;;;9.23;3.00;;;28.10;63.70;;;;;;5053998;28;20085;-86
2022/08/23 11:37:22;;;;;;;8.65;3.03;;;28.20;63.40;;;;;;5053169;28;20097;-86
2022/08/23 11:39:57;;;;;;;8.03;2.60;;;28.30;60.80;;;;;;5053422;28;20040;-86
2022/08/23 11:42:47;;;;;;;10.48;2.72;;;28.30;59.80;;;;;;5069796;28;20298;-86
2022/08/23 11:45:42;;;;;;;8.60;2.55;;;28.40;60.60;;;;;;5053219;28;20478;-86
2022/08/23 11:48:26;;;;;;;8.13;2.60;;;28.50;61.50;;;;;;5069532;28;20033;-86
2022/08/23 11:51:16;;;;;;;9.77;2.80;;;28.60;62.60;;;;;;5053031;28;20040;-86
2022/08/23 11:53:48;;;;;;;8.85;2.65;;;28.70;61.40;;;;;;5070412;28;20040;-86
2022/08/23 11:56:48;;;;;;;9.85;2.72;;;28.80;63.00;;;;;;5052622;28;20037;-86
2022/08/23 11:59:42;;;;;;;8.05;2.70;;;29.00;64.40;;;;;;5018877;28;20131;-86
2022/08/23 12:02:48;;;;;;;8.73;2.90;;;29.10;61.00;;;;;;5051620;28;20037;-86
2022/08/23 12:05:16;;;;;;;7.78;2.67;;;29.30;59.20;;;;;;5069131;28;20497;-86
2022/08/23 12:08:16;;;;;;;9.63;2.30;;;29.40;57.50;;;;;;5051325;28;20496;-86
2022/08/23 12:10:41;;;;;;;9.20;2.95;;;29.40;57.40;;;;;;5052566;28;20045;-86
2022/08/23 12:13:19;;;;;;;6.72;2.40;;;29.40;56.30;;;;;;5052038;28;20086;-86
2022/08/23 12:16:08;;;;;;;8.30;2.72;;;29.50;56.40;;;;;;5068894;28;20047;-86
2022/08/23 12:18:40;;;;;;;8.63;2.60;;;29.60;56.30;;;;;;5069701;28;20079;-86
2022/08/23 12:21:15;;;;;;;8.57;2.95;;;29.70;55.50;;;;;;5052185;28;20681;-86
2022/08/23 12:23:47;;;;;;;9.27;3.00;;;29.80;54.20;;;;;;5069213;28;20079;-86
2022/08/23 12:26:30;;;;;;;6.88;2.65;;;29.90;53.50;;;;;;5068106;28;20033;-86
2022/08/23 12:29:06;;;;;;;6.72;2.38;;;29.90;53.20;;;;;;5050258;28;20127;-86
2022/08/23 12:31:50;;;;;;;8.77;2.92;;;30.00;53.50;;;;;;5067945;28;20131;-86
2022/08/23 12:34:25;;;;;;;7.65;2.50;;;30.10;52.70;;;;;;5050632;28;20044;-86
2022/08/23 12:37:17;;;;;;;9.13;2.90;;;30.30;53.30;;;;;;5051753;28;20045;-86
2022/08/23 12:39:51;;;;;;;7.72;2.75;;;30.40;52.10;;;;;;5068434;28;20040;-86
2022/08/23 12:42:44;;;;;;;7.97;2.63;;;30.60;54.80;;;;;;5052124;28;20058;-87
2022/08/23 12:45:17;;;;;;;8.05;2.90;;;30.80;51.80;;;;;;5068526;28;20055;-86
2022/08/23 12:47:54;;;;;;;6.40;2.67;;;30.90;51.90;;;;;;5052604;28;20478;-86
2022/08/23 12:50:42;;;;;;;8.65;2.97;;;31.00;51.30;;;;;;5050246;28;20075;-86
2022/08/23 12:53:24;;;;;;;8.43;3.03;;;31.10;50.80;;;;;;5051941;28;20083;-86
2022/08/23 12:55:50;;;;;;;8.70;2.88;;;31.20;51.50;;;;;;5057760;28;20128;-86
2022/08/23 12:58:26;;;;;;;8.60;2.90;;;31.30;50.90;;;;;;5036420;28;20718;-86
2022/08/23 13:00:54;;;;;;;7.22;2.83;;;31.40;50.80;;;;;;5036123;28;20124;-86
2022/08/23 13:03:33;;;;;;;8.23;2.60;;;31.50;50.50;;;;;;5061458;28;20123;-86
2022/08/23 13:06:06;;;;;;;9.52;2.88;;;31.50;49.20;;;;;;5053434;28;20041;-86
2022/08/23 13:08:39;;;;;;;8.23;2.47;;;31.40;50.10;;;;;;5064586;28;20033;-86
2022/08/23 13:11:07;;;;;;;8.10;2.40;;;31.40;50.60;;;;;;5072446;28;20556;-86
2022/08/23 13:13:35;;;;;;;6.63;2.33;;;31.30;50.50;;;;;;5072096;28;20037;-86